sensor_id;sensor_type;location;lat;lon;timestamp;temperature;humidity
76345;DHT22;65160;50.504;3.666;2022-12-18T00:00:58;-6.34;90.71
76345;DHT22;65160;50.504;3.666;2022-12-18T00:03:25;-6.35;90.99
76345;DHT22;65160;50.504;3.666;2022-12-18T00:05:51;-6.35;91.11
76345;DHT22;65160;50.504;3.666;2022-12-18T00:08:18;-6.36;90.88
76345;DHT22;65160;50.504;3.666;2022-12-18T00:10:44;-6.48;90.75
76345;DHT22;65160;50.504;3.666;2022-12-18T00:13:10;-6.55;90.72
76345;DHT22;65160;50.504;3.666;2022-12-18T00:15:36;-6.45;91.15
76345;DHT22;65160;50.504;3.666;2022-12-18T00:18:02;-6.48;91.14
76345;DHT22;65160;50.504;3.666;2022-12-18T00:20:28;-6.49;91.32
76345;DHT22;65160;50.504;3.666;2022-12-18T00:22:54;-6.50;91.41
76345;DHT22;65160;50.504;3.666;2022-12-18T00:25:19;-6.50;91.22
76345;DHT22;65160;50.504;3.666;2022-12-18T00:27:45;-6.50;91.09
76345;DHT22;65160;50.504;3.666;2022-12-18T00:30:11;-6.62;90.85
76345;DHT22;65160;50.504;3.666;2022-12-18T00:32:36;-6.70;90.99
76345;DHT22;65160;50.504;3.666;2022-12-18T00:35:03;-6.72;90.79
76345;DHT22;65160;50.504;3.666;2022-12-18T00:37:28;-6.72;91.10
76345;DHT22;65160;50.504;3.666;2022-12-18T00:39:54;-6.69;91.04
76345;DHT22;65160;50.504;3.666;2022-12-18T00:42:19;-6.73;90.72
76345;DHT22;65160;50.504;3.666;2022-12-18T00:45:04;-6.76;90.93
76345;DHT22;65160;50.504;3.666;2022-12-18T00:47:29;-6.83;90.69
76345;DHT22;65160;50.504;3.666;2022-12-18T00:49:55;-6.89;90.65
76345;DHT22;65160;50.504;3.666;2022-12-18T00:52:20;-6.94;90.74
76345;DHT22;65160;50.504;3.666;2022-12-18T00:54:45;-6.94;91.06
76345;DHT22;65160;50.504;3.666;2022-12-18T00:57:11;-6.93;90.89
76345;DHT22;65160;50.504;3.666;2022-12-18T00:59:36;-6.94;90.76
76345;DHT22;65160;50.504;3.666;2022-12-18T01:02:02;-7.00;90.86
76345;DHT22;65160;50.504;3.666;2022-12-18T01:04:27;-7.01;91.22
76345;DHT22;65160;50.504;3.666;2022-12-18T01:06:53;-7.01;91.53
76345;DHT22;65160;50.504;3.666;2022-12-18T01:09:19;-6.87;91.44
76345;DHT22;65160;50.504;3.666;2022-12-18T01:11:44;-6.90;91.01
76345;DHT22;65160;50.504;3.666;2022-12-18T01:14:10;-6.94;90.64
76345;DHT22;65160;50.504;3.666;2022-12-18T01:16:35;-6.99;90.58
76345;DHT22;65160;50.504;3.666;2022-12-18T01:19:01;-6.97;90.56
76345;DHT22;65160;50.504;3.666;2022-12-18T01:21:26;-6.93;90.70
76345;DHT22;65160;50.504;3.666;2022-12-18T01:23:56;-6.89;90.57
76345;DHT22;65160;50.504;3.666;2022-12-18T01:26:21;-6.93;90.31
76345;DHT22;65160;50.504;3.666;2022-12-18T01:28:47;-6.93;90.73
76345;DHT22;65160;50.504;3.666;2022-12-18T01:31:21;-7.05;90.73
76345;DHT22;65160;50.504;3.666;2022-12-18T01:33:47;-7.10;90.68
76345;DHT22;65160;50.504;3.666;2022-12-18T01:36:17;-7.15;90.10
76345;DHT22;65160;50.504;3.666;2022-12-18T01:38:43;-7.19;89.94
76345;DHT22;65160;50.504;3.666;2022-12-18T01:41:09;-7.31;89.65
76345;DHT22;65160;50.504;3.666;2022-12-18T01:43:53;-7.29;89.94
76345;DHT22;65160;50.504;3.666;2022-12-18T01:46:21;-7.22;90.15
76345;DHT22;65160;50.504;3.666;2022-12-18T01:48:49;-7.22;89.94
76345;DHT22;65160;50.504;3.666;2022-12-18T01:51:15;-7.28;90.05
76345;DHT22;65160;50.504;3.666;2022-12-18T01:53:42;-7.29;90.27
76345;DHT22;65160;50.504;3.666;2022-12-18T01:56:13;-7.25;90.48
76345;DHT22;65160;50.504;3.666;2022-12-18T01:58:55;-7.29;90.17
76345;DHT22;65160;50.504;3.666;2022-12-18T02:01:24;-7.34;89.85
76345;DHT22;65160;50.504;3.666;2022-12-18T02:03:49;-7.29;90.13
76345;DHT22;65160;50.504;3.666;2022-12-18T02:06:37;-7.34;89.68
76345;DHT22;65160;50.504;3.666;2022-12-18T02:09:12;-7.29;89.95
76345;DHT22;65160;50.504;3.666;2022-12-18T02:14:30;-7.35;89.37
76345;DHT22;65160;50.504;3.666;2022-12-18T02:20:09;-7.46;89.79
76345;DHT22;65160;50.504;3.666;2022-12-18T02:22:59;-7.48;89.95
76345;DHT22;65160;50.504;3.666;2022-12-18T02:27:59;-7.57;90.27
76345;DHT22;65160;50.504;3.666;2022-12-18T02:30:27;-7.55;90.33
76345;DHT22;65160;50.504;3.666;2022-12-18T02:32:55;-7.56;90.00
76345;DHT22;65160;50.504;3.666;2022-12-18T02:35:26;-7.59;90.01
76345;DHT22;65160;50.504;3.666;2022-12-18T02:37:53;-7.56;89.89
76345;DHT22;65160;50.504;3.666;2022-12-18T02:40:19;-7.46;89.91
76345;DHT22;65160;50.504;3.666;2022-12-18T02:42:46;-7.52;90.10
76345;DHT22;65160;50.504;3.666;2022-12-18T02:45:11;-7.57;89.94
76345;DHT22;65160;50.504;3.666;2022-12-18T02:47:39;-7.57;90.30
76345;DHT22;65160;50.504;3.666;2022-12-18T02:50:34;-7.59;90.71
76345;DHT22;65160;50.504;3.666;2022-12-18T02:53:07;-7.57;90.69
76345;DHT22;65160;50.504;3.666;2022-12-18T02:58:32;-7.55;90.24
76345;DHT22;65160;50.504;3.666;2022-12-18T03:00:59;-7.66;89.97
76345;DHT22;65160;50.504;3.666;2022-12-18T03:06:25;-7.70;90.40
76345;DHT22;65160;50.504;3.666;2022-12-18T03:08:57;-7.64;90.21
76345;DHT22;65160;50.504;3.666;2022-12-18T03:11:25;-7.73;89.56
76345;DHT22;65160;50.504;3.666;2022-12-18T03:14:12;-7.69;89.58
76345;DHT22;65160;50.504;3.666;2022-12-18T03:16:41;-7.70;89.68
76345;DHT22;65160;50.504;3.666;2022-12-18T03:19:15;-7.66;89.70
76345;DHT22;65160;50.504;3.666;2022-12-18T03:21:47;-7.72;89.88
76345;DHT22;65160;50.504;3.666;2022-12-18T03:24:15;-7.74;89.65
76345;DHT22;65160;50.504;3.666;2022-12-18T03:26:44;-7.72;89.43
76345;DHT22;65160;50.504;3.666;2022-12-18T03:29:21;-7.73;89.29
76345;DHT22;65160;50.504;3.666;2022-12-18T03:31:54;-7.72;89.31
76345;DHT22;65160;50.504;3.666;2022-12-18T03:34:28;-7.79;89.34
76345;DHT22;65160;50.504;3.666;2022-12-18T03:36:55;-7.84;89.61
76345;DHT22;65160;50.504;3.666;2022-12-18T03:39:20;-7.82;89.45
76345;DHT22;65160;50.504;3.666;2022-12-18T03:42:09;-7.89;89.63
76345;DHT22;65160;50.504;3.666;2022-12-18T03:44:52;-7.93;90.01
76345;DHT22;65160;50.504;3.666;2022-12-18T03:52:30;-7.82;89.83
76345;DHT22;65160;50.504;3.666;2022-12-18T03:54:59;-7.79;89.19
76345;DHT22;65160;50.504;3.666;2022-12-18T03:57:28;-7.87;89.00
76345;DHT22;65160;50.504;3.666;2022-12-18T03:59:59;-7.93;89.04
76345;DHT22;65160;50.504;3.666;2022-12-18T04:02:26;-8.08;88.91
76345;DHT22;65160;50.504;3.666;2022-12-18T04:04:58;-8.15;89.24
76345;DHT22;65160;50.504;3.666;2022-12-18T04:07:25;-8.14;89.64
76345;DHT22;65160;50.504;3.666;2022-12-18T04:09:53;-8.08;90.06
76345;DHT22;65160;50.504;3.666;2022-12-18T04:12:21;-8.11;89.74
76345;DHT22;65160;50.504;3.666;2022-12-18T04:14:48;-8.08;90.06
76345;DHT22;65160;50.504;3.666;2022-12-18T04:17:14;-8.11;90.04
76345;DHT22;65160;50.504;3.666;2022-12-18T04:19:39;-8.08;89.75
76345;DHT22;65160;50.504;3.666;2022-12-18T04:22:05;-8.10;89.58
76345;DHT22;65160;50.504;3.666;2022-12-18T04:24:30;-8.11;89.40
76345;DHT22;65160;50.504;3.666;2022-12-18T04:26:56;-8.10;89.43
76345;DHT22;65160;50.504;3.666;2022-12-18T04:29:21;-8.04;89.20
76345;DHT22;65160;50.504;3.666;2022-12-18T04:31:46;-8.05;89.64
76345;DHT22;65160;50.504;3.666;2022-12-18T04:34:12;-7.98;90.66
76345;DHT22;65160;50.504;3.666;2022-12-18T04:36:37;-7.98;90.55
76345;DHT22;65160;50.504;3.666;2022-12-18T04:39:03;-7.94;90.26
76345;DHT22;65160;50.504;3.666;2022-12-18T04:41:28;-7.87;90.24
76345;DHT22;65160;50.504;3.666;2022-12-18T04:43:54;-7.90;89.95
76345;DHT22;65160;50.504;3.666;2022-12-18T04:46:19;-7.90;89.95
76345;DHT22;65160;50.504;3.666;2022-12-18T04:48:46;-8.00;89.38
76345;DHT22;65160;50.504;3.666;2022-12-18T04:51:12;-7.97;89.79
76345;DHT22;65160;50.504;3.666;2022-12-18T04:53:38;-8.01;90.08
76345;DHT22;65160;50.504;3.666;2022-12-18T04:56:04;-8.01;90.12
76345;DHT22;65160;50.504;3.666;2022-12-18T04:58:30;-8.05;90.09
76345;DHT22;65160;50.504;3.666;2022-12-18T05:00:55;-8.10;90.38
76345;DHT22;65160;50.504;3.666;2022-12-18T05:03:21;-8.08;90.41
76345;DHT22;65160;50.504;3.666;2022-12-18T05:05:50;-8.03;90.38
76345;DHT22;65160;50.504;3.666;2022-12-18T05:08:16;-8.05;90.12
76345;DHT22;65160;50.504;3.666;2022-12-18T05:10:41;-8.11;90.00
76345;DHT22;65160;50.504;3.666;2022-12-18T05:13:07;-8.12;90.11
76345;DHT22;65160;50.504;3.666;2022-12-18T05:15:33;-8.08;90.42
76345;DHT22;65160;50.504;3.666;2022-12-18T05:17:59;-8.04;90.24
76345;DHT22;65160;50.504;3.666;2022-12-18T05:20:26;-7.97;90.21
76345;DHT22;65160;50.504;3.666;2022-12-18T05:22:52;-8.00;89.99
76345;DHT22;65160;50.504;3.666;2022-12-18T05:25:17;-7.95;90.13
76345;DHT22;65160;50.504;3.666;2022-12-18T05:27:43;-7.95;90.34
76345;DHT22;65160;50.504;3.666;2022-12-18T05:30:09;-7.97;90.17
76345;DHT22;65160;50.504;3.666;2022-12-18T05:32:35;-8.01;90.27
76345;DHT22;65160;50.504;3.666;2022-12-18T05:35:00;-8.05;90.10
76345;DHT22;65160;50.504;3.666;2022-12-18T05:37:26;-8.04;89.88
76345;DHT22;65160;50.504;3.666;2022-12-18T05:39:52;-8.12;90.06
76345;DHT22;65160;50.504;3.666;2022-12-18T05:42:17;-8.17;90.15
76345;DHT22;65160;50.504;3.666;2022-12-18T05:44:43;-8.20;90.25
76345;DHT22;65160;50.504;3.666;2022-12-18T05:47:09;-8.15;90.91
76345;DHT22;65160;50.504;3.666;2022-12-18T05:49:35;-8.08;91.16
76345;DHT22;65160;50.504;3.666;2022-12-18T05:52:00;-8.00;91.06
76345;DHT22;65160;50.504;3.666;2022-12-18T05:54:28;-7.95;90.58
76345;DHT22;65160;50.504;3.666;2022-12-18T05:56:54;-8.04;90.22
76345;DHT22;65160;50.504;3.666;2022-12-18T05:59:19;-8.01;90.73
76345;DHT22;65160;50.504;3.666;2022-12-18T06:01:45;-8.05;90.76
76345;DHT22;65160;50.504;3.666;2022-12-18T06:04:11;-7.93;91.19
76345;DHT22;65160;50.504;3.666;2022-12-18T06:06:36;-8.00;91.05
76345;DHT22;65160;50.504;3.666;2022-12-18T06:09:02;-7.97;90.95
76345;DHT22;65160;50.504;3.666;2022-12-18T06:11:34;-7.91;90.89
76345;DHT22;65160;50.504;3.666;2022-12-18T06:14:01;-7.90;90.75
76345;DHT22;65160;50.504;3.666;2022-12-18T06:16:28;-7.93;90.34
76345;DHT22;65160;50.504;3.666;2022-12-18T06:18:56;-8.07;90.44
76345;DHT22;65160;50.504;3.666;2022-12-18T06:21:21;-8.05;90.81
76345;DHT22;65160;50.504;3.666;2022-12-18T06:23:47;-8.05;90.91
76345;DHT22;65160;50.504;3.666;2022-12-18T06:26:13;-8.00;90.79
76345;DHT22;65160;50.504;3.666;2022-12-18T06:28:38;-8.05;90.60
76345;DHT22;65160;50.504;3.666;2022-12-18T06:31:04;-8.03;90.64
76345;DHT22;65160;50.504;3.666;2022-12-18T06:33:31;-8.00;90.82
76345;DHT22;65160;50.504;3.666;2022-12-18T06:36:04;-8.05;90.96
76345;DHT22;65160;50.504;3.666;2022-12-18T06:38:31;-8.08;91.18
76345;DHT22;65160;50.504;3.666;2022-12-18T06:40:57;-8.04;91.26
76345;DHT22;65160;50.504;3.666;2022-12-18T06:43:23;-7.91;90.75
76345;DHT22;65160;50.504;3.666;2022-12-18T06:45:48;-7.93;90.10
76345;DHT22;65160;50.504;3.666;2022-12-18T06:48:18;-8.03;90.27
76345;DHT22;65160;50.504;3.666;2022-12-18T06:50:45;-8.08;90.40
76345;DHT22;65160;50.504;3.666;2022-12-18T06:53:10;-8.10;90.55
76345;DHT22;65160;50.504;3.666;2022-12-18T06:55:36;-8.07;90.91
76345;DHT22;65160;50.504;3.666;2022-12-18T06:58:01;-8.07;90.96
76345;DHT22;65160;50.504;3.666;2022-12-18T07:00:26;-8.10;91.01
76345;DHT22;65160;50.504;3.666;2022-12-18T07:02:52;-8.05;91.10
76345;DHT22;65160;50.504;3.666;2022-12-18T07:05:17;-8.01;91.03
76345;DHT22;65160;50.504;3.666;2022-12-18T07:07:43;-8.01;91.00
76345;DHT22;65160;50.504;3.666;2022-12-18T07:10:08;-8.01;90.82
76345;DHT22;65160;50.504;3.666;2022-12-18T07:12:34;-8.01;91.00
76345;DHT22;65160;50.504;3.666;2022-12-18T07:14:59;-7.98;91.64
76345;DHT22;65160;50.504;3.666;2022-12-18T07:17:25;-7.94;91.90
76345;DHT22;65160;50.504;3.666;2022-12-18T07:19:50;-7.89;92.00
76345;DHT22;65160;50.504;3.666;2022-12-18T07:22:16;-7.84;92.13
76345;DHT22;65160;50.504;3.666;2022-12-18T07:24:41;-7.76;92.82
76345;DHT22;65160;50.504;3.666;2022-12-18T07:27:06;-7.56;93.83
76345;DHT22;65160;50.504;3.666;2022-12-18T07:29:32;-7.50;93.35
76345;DHT22;65160;50.504;3.666;2022-12-18T07:31:57;-7.46;93.90
76345;DHT22;65160;50.504;3.666;2022-12-18T07:34:23;-7.31;94.18
76345;DHT22;65160;50.504;3.666;2022-12-18T07:36:48;-7.25;94.38
76345;DHT22;65160;50.504;3.666;2022-12-18T07:39:14;-6.96;95.53
76345;DHT22;65160;50.504;3.666;2022-12-18T07:41:39;-6.86;95.48
76345;DHT22;65160;50.504;3.666;2022-12-18T07:44:12;-6.84;95.33
76345;DHT22;65160;50.504;3.666;2022-12-18T07:46:37;-6.75;95.30
76345;DHT22;65160;50.504;3.666;2022-12-18T07:49:03;-6.45;95.90
76345;DHT22;65160;50.504;3.666;2022-12-18T07:51:28;-6.34;95.60
76345;DHT22;65160;50.504;3.666;2022-12-18T07:53:54;-6.39;95.30
76345;DHT22;65160;50.504;3.666;2022-12-18T07:56:20;-6.36;95.12
76345;DHT22;65160;50.504;3.666;2022-12-18T07:58:47;-6.39;94.89
76345;DHT22;65160;50.504;3.666;2022-12-18T08:01:12;-6.36;94.93
76345;DHT22;65160;50.504;3.666;2022-12-18T08:03:39;-6.25;95.12
76345;DHT22;65160;50.504;3.666;2022-12-18T08:06:07;-5.97;95.23
76345;DHT22;65160;50.504;3.666;2022-12-18T08:08:33;-5.77;94.72
76345;DHT22;65160;50.504;3.666;2022-12-18T08:10:59;-5.59;94.30
76345;DHT22;65160;50.504;3.666;2022-12-18T08:13:25;-5.42;94.01
76345;DHT22;65160;50.504;3.666;2022-12-18T08:16:07;-5.28;93.39
76345;DHT22;65160;50.504;3.666;2022-12-18T08:18:33;-5.27;93.04
76345;DHT22;65160;50.504;3.666;2022-12-18T08:21:07;-5.30;93.31
76345;DHT22;65160;50.504;3.666;2022-12-18T08:23:33;-5.08;93.13
76345;DHT22;65160;50.504;3.666;2022-12-18T08:25:58;-4.87;92.47
76345;DHT22;65160;50.504;3.666;2022-12-18T08:28:24;-4.72;91.72
76345;DHT22;65160;50.504;3.666;2022-12-18T08:30:51;-4.62;91.15
76345;DHT22;65160;50.504;3.666;2022-12-18T08:33:17;-4.61;91.11
76345;DHT22;65160;50.504;3.666;2022-12-18T08:35:42;-4.54;90.79
76345;DHT22;65160;50.504;3.666;2022-12-18T08:38:08;-4.54;90.87
76345;DHT22;65160;50.504;3.666;2022-12-18T08:40:33;-4.46;90.92
76345;DHT22;65160;50.504;3.666;2022-12-18T08:42:59;-4.38;90.56
76345;DHT22;65160;50.504;3.666;2022-12-18T08:45:42;-4.25;89.74
76345;DHT22;65160;50.504;3.666;2022-12-18T08:48:08;-4.25;89.94
76345;DHT22;65160;50.504;3.666;2022-12-18T08:50:33;-4.32;90.53
76345;DHT22;65160;50.504;3.666;2022-12-18T08:52:59;-4.34;91.03
76345;DHT22;65160;50.504;3.666;2022-12-18T08:55:25;-4.40;91.52
76345;DHT22;65160;50.504;3.666;2022-12-18T08:57:50;-4.34;92.12
76345;DHT22;65160;50.504;3.666;2022-12-18T09:00:16;-4.24;91.72
76345;DHT22;65160;50.504;3.666;2022-12-18T09:02:42;-4.21;91.83
76345;DHT22;65160;50.504;3.666;2022-12-18T09:05:07;-4.01;91.02
76345;DHT22;65160;50.504;3.666;2022-12-18T09:07:33;-4.07;91.42
76345;DHT22;65160;50.504;3.666;2022-12-18T09:10:01;-4.11;91.81
76345;DHT22;65160;50.504;3.666;2022-12-18T09:12:26;-4.03;91.57
76345;DHT22;65160;50.504;3.666;2022-12-18T09:14:52;-3.93;91.46
76345;DHT22;65160;50.504;3.666;2022-12-18T09:17:17;-3.80;90.69
76345;DHT22;65160;50.504;3.666;2022-12-18T09:19:43;-3.73;90.05
76345;DHT22;65160;50.504;3.666;2022-12-18T09:22:09;-3.62;89.97
76345;DHT22;65160;50.504;3.666;2022-12-18T09:24:35;-3.62;90.29
76345;DHT22;65160;50.504;3.666;2022-12-18T09:27:00;-3.58;89.80
76345;DHT22;65160;50.504;3.666;2022-12-18T09:29:26;-3.61;90.11
76345;DHT22;65160;50.504;3.666;2022-12-18T09:31:51;-3.52;89.47
76345;DHT22;65160;50.504;3.666;2022-12-18T09:34:16;-3.35;89.42
76345;DHT22;65160;50.504;3.666;2022-12-18T09:36:42;-3.25;88.86
76345;DHT22;65160;50.504;3.666;2022-12-18T09:39:07;-3.20;88.76
76345;DHT22;65160;50.504;3.666;2022-12-18T09:44:41;-3.20;88.85
76345;DHT22;65160;50.504;3.666;2022-12-18T09:49:46;-3.17;89.90
76345;DHT22;65160;50.504;3.666;2022-12-18T09:52:17;-3.07;89.74
76345;DHT22;65160;50.504;3.666;2022-12-18T09:55:24;-3.00;88.86
76345;DHT22;65160;50.504;3.666;2022-12-18T09:57:45;-3.01;89.16
76345;DHT22;65160;50.504;3.666;2022-12-18T10:00:22;-2.96;88.97
76345;DHT22;65160;50.504;3.666;2022-12-18T10:02:50;-2.97;89.03
76345;DHT22;65160;50.504;3.666;2022-12-18T10:05:21;-2.93;88.79
76345;DHT22;65160;50.504;3.666;2022-12-18T10:13:38;-2.80;88.81
76345;DHT22;65160;50.504;3.666;2022-12-18T10:16:19;-2.72;88.87
76345;DHT22;65160;50.504;3.666;2022-12-18T10:27:18;-2.64;89.19
76345;DHT22;65160;50.504;3.666;2022-12-18T10:29:44;-2.57;89.04
76345;DHT22;65160;50.504;3.666;2022-12-18T10:32:18;-2.51;87.74
76345;DHT22;65160;50.504;3.666;2022-12-18T10:34:46;-2.45;87.08
76345;DHT22;65160;50.504;3.666;2022-12-18T10:37:26;-2.44;86.69
76345;DHT22;65160;50.504;3.666;2022-12-18T10:40:11;-2.40;86.32
76345;DHT22;65160;50.504;3.666;2022-12-18T10:42:37;-2.30;85.81
76345;DHT22;65160;50.504;3.666;2022-12-18T10:45:10;-2.30;86.48
76345;DHT22;65160;50.504;3.666;2022-12-18T10:47:36;-2.34;85.87
76345;DHT22;65160;50.504;3.666;2022-12-18T10:50:19;-2.24;86.82
76345;DHT22;65160;50.504;3.666;2022-12-18T10:52:53;-2.26;85.79
76345;DHT22;65160;50.504;3.666;2022-12-18T10:55:19;-2.26;86.68
76345;DHT22;65160;50.504;3.666;2022-12-18T10:57:45;-2.23;86.02
76345;DHT22;65160;50.504;3.666;2022-12-18T11:00:28;-2.14;87.39
76345;DHT22;65160;50.504;3.666;2022-12-18T11:02:55;-2.17;86.54
76345;DHT22;65160;50.504;3.666;2022-12-18T11:05:32;-2.14;87.01
76345;DHT22;65160;50.504;3.666;2022-12-18T11:07:59;-2.13;87.10
76345;DHT22;65160;50.504;3.666;2022-12-18T11:10:36;-2.11;87.24
76345;DHT22;65160;50.504;3.666;2022-12-18T11:13:23;-2.13;87.55
76345;DHT22;65160;50.504;3.666;2022-12-18T11:15:49;-2.10;87.24
76345;DHT22;65160;50.504;3.666;2022-12-18T11:21:01;-2.04;86.51
76345;DHT22;65160;50.504;3.666;2022-12-18T11:23:30;-1.97;87.07
76345;DHT22;65160;50.504;3.666;2022-12-18T11:25:58;-1.93;86.86
76345;DHT22;65160;50.504;3.666;2022-12-18T11:31:22;-1.85;86.23
76345;DHT22;65160;50.504;3.666;2022-12-18T11:36:30;-1.82;85.20
76345;DHT22;65160;50.504;3.666;2022-12-18T11:38:59;-1.75;85.80
76345;DHT22;65160;50.504;3.666;2022-12-18T11:41:34;-1.78;85.94
76345;DHT22;65160;50.504;3.666;2022-12-18T11:44:38;-1.73;85.83
76345;DHT22;65160;50.504;3.666;2022-12-18T11:47:26;-1.69;85.05
76345;DHT22;65160;50.504;3.666;2022-12-18T11:49:55;-1.68;84.93
76345;DHT22;65160;50.504;3.666;2022-12-18T11:52:27;-1.69;85.14
76345;DHT22;65160;50.504;3.666;2022-12-18T11:55:00;-1.62;85.47
76345;DHT22;65160;50.504;3.666;2022-12-18T12:00:10;-1.62;85.10
76345;DHT22;65160;50.504;3.666;2022-12-18T12:11:32;-1.41;84.45
76345;DHT22;65160;50.504;3.666;2022-12-18T12:23:01;-1.31;84.90
76345;DHT22;65160;50.504;3.666;2022-12-18T12:25:40;-1.26;84.54
76345;DHT22;65160;50.504;3.666;2022-12-18T12:39:19;-1.08;84.65
76345;DHT22;65160;50.504;3.666;2022-12-18T12:41:45;-1.01;84.45
76345;DHT22;65160;50.504;3.666;2022-12-18T12:44:43;-1.00;83.47
76345;DHT22;65160;50.504;3.666;2022-12-18T12:47:18;-1.01;83.50
76345;DHT22;65160;50.504;3.666;2022-12-18T12:49:46;-0.99;83.60
76345;DHT22;65160;50.504;3.666;2022-12-18T12:53:16;-0.92;84.20
76345;DHT22;65160;50.504;3.666;2022-12-18T12:55:30;-0.86;84.05
76345;DHT22;65160;50.504;3.666;2022-12-18T12:58:01;-0.89;83.35
76345;DHT22;65160;50.504;3.666;2022-12-18T13:00:36;-0.92;83.09
76345;DHT22;65160;50.504;3.666;2022-12-18T13:03:27;-0.88;84.12
76345;DHT22;65160;50.504;3.666;2022-12-18T13:05:59;-0.86;83.88
76345;DHT22;65160;50.504;3.666;2022-12-18T13:08:30;-0.83;83.46
76345;DHT22;65160;50.504;3.666;2022-12-18T13:10:57;-0.79;83.67
76345;DHT22;65160;50.504;3.666;2022-12-18T13:13:53;-0.79;82.69
76345;DHT22;65160;50.504;3.666;2022-12-18T13:16:22;-0.80;82.41
76345;DHT22;65160;50.504;3.666;2022-12-18T13:18:53;-0.76;83.05
76345;DHT22;65160;50.504;3.666;2022-12-18T13:21:29;-0.70;83.38
76345;DHT22;65160;50.504;3.666;2022-12-18T13:23:55;-0.72;83.31
76345;DHT22;65160;50.504;3.666;2022-12-18T13:26:29;-0.68;83.07
76345;DHT22;65160;50.504;3.666;2022-12-18T13:28:57;-0.68;82.08
76345;DHT22;65160;50.504;3.666;2022-12-18T13:33:48;-0.69;81.63
76345;DHT22;65160;50.504;3.666;2022-12-18T13:36:30;-0.62;82.44
76345;DHT22;65160;50.504;3.666;2022-12-18T13:41:41;-0.61;82.29
76345;DHT22;65160;50.504;3.666;2022-12-18T13:44:13;-0.62;83.35
76345;DHT22;65160;50.504;3.666;2022-12-18T13:46:46;-0.59;83.43
76345;DHT22;65160;50.504;3.666;2022-12-18T13:51:41;-0.54;82.44
76345;DHT22;65160;50.504;3.666;2022-12-18T13:54:36;-0.57;82.80
76345;DHT22;65160;50.504;3.666;2022-12-18T13:57:03;-0.54;83.25
76345;DHT22;65160;50.504;3.666;2022-12-18T13:59:39;-0.50;82.52
76345;DHT22;65160;50.504;3.666;2022-12-18T14:02:16;-0.50;82.54
76345;DHT22;65160;50.504;3.666;2022-12-18T14:04:45;-0.51;82.54
76345;DHT22;65160;50.504;3.666;2022-12-18T14:07:14;-0.48;82.92
76345;DHT22;65160;50.504;3.666;2022-12-18T14:09:46;-0.48;82.74
76345;DHT22;65160;50.504;3.666;2022-12-18T14:12:23;-0.52;82.17
76345;DHT22;65160;50.504;3.666;2022-12-18T14:18:01;-0.55;81.90
76345;DHT22;65160;50.504;3.666;2022-12-18T14:20:29;-0.57;81.36
76345;DHT22;65160;50.504;3.666;2022-12-18T14:22:56;-0.59;81.31
76345;DHT22;65160;50.504;3.666;2022-12-18T14:25:24;-0.59;82.72
76345;DHT22;65160;50.504;3.666;2022-12-18T14:27:52;-0.62;81.63
76345;DHT22;65160;50.504;3.666;2022-12-18T14:35:30;-0.65;82.18
76345;DHT22;65160;50.504;3.666;2022-12-18T14:38:26;-0.64;81.53
76345;DHT22;65160;50.504;3.666;2022-12-18T14:43:36;-0.54;82.11
76345;DHT22;65160;50.504;3.666;2022-12-18T14:46:03;-0.57;82.46
76345;DHT22;65160;50.504;3.666;2022-12-18T14:48:36;-0.65;81.69
76345;DHT22;65160;50.504;3.666;2022-12-18T14:51:05;-0.58;80.55
76345;DHT22;65160;50.504;3.666;2022-12-18T14:53:41;-0.59;81.22
76345;DHT22;65160;50.504;3.666;2022-12-18T14:56:16;-0.57;81.82
76345;DHT22;65160;50.504;3.666;2022-12-18T14:58:51;-0.55;81.45
76345;DHT22;65160;50.504;3.666;2022-12-18T15:01:44;-0.57;81.39
76345;DHT22;65160;50.504;3.666;2022-12-18T15:04:31;-0.55;82.51
76345;DHT22;65160;50.504;3.666;2022-12-18T15:09:36;-0.58;81.58
76345;DHT22;65160;50.504;3.666;2022-12-18T15:12:02;-0.55;81.65
76345;DHT22;65160;50.504;3.666;2022-12-18T15:14:33;-0.55;82.26
76345;DHT22;65160;50.504;3.666;2022-12-18T15:17:05;-0.55;81.59
76345;DHT22;65160;50.504;3.666;2022-12-18T15:19:39;-0.50;82.49
76345;DHT22;65160;50.504;3.666;2022-12-18T15:22:18;-0.54;81.86
76345;DHT22;65160;50.504;3.666;2022-12-18T15:24:44;-0.51;82.25
76345;DHT22;65160;50.504;3.666;2022-12-18T15:27:32;-0.51;82.03
76345;DHT22;65160;50.504;3.666;2022-12-18T15:32:33;-0.51;82.13
76345;DHT22;65160;50.504;3.666;2022-12-18T15:35:24;-0.47;81.99
76345;DHT22;65160;50.504;3.666;2022-12-18T15:37:52;-0.41;81.49
76345;DHT22;65160;50.504;3.666;2022-12-18T15:40:22;-0.42;81.24
76345;DHT22;65160;50.504;3.666;2022-12-18T15:42:51;-0.37;81.20
76345;DHT22;65160;50.504;3.666;2022-12-18T15:45:36;-0.38;81.38
76345;DHT22;65160;50.504;3.666;2022-12-18T15:48:03;-0.34;81.18
76345;DHT22;65160;50.504;3.666;2022-12-18T15:50:30;-0.31;80.98
76345;DHT22;65160;50.504;3.666;2022-12-18T15:52:55;-0.34;81.83
76345;DHT22;65160;50.504;3.666;2022-12-18T15:55:23;-0.33;82.11
76345;DHT22;65160;50.504;3.666;2022-12-18T15:58:08;-0.31;81.49
76345;DHT22;65160;50.504;3.666;2022-12-18T16:00:34;-0.27;81.35
76345;DHT22;65160;50.504;3.666;2022-12-18T16:03:01;-0.30;81.43
76345;DHT22;65160;50.504;3.666;2022-12-18T16:05:27;-0.30;81.79
76345;DHT22;65160;50.504;3.666;2022-12-18T16:07:53;-0.28;82.23
76345;DHT22;65160;50.504;3.666;2022-12-18T16:10:19;-0.30;82.83
76345;DHT22;65160;50.504;3.666;2022-12-18T16:12:45;-0.31;82.90
76345;DHT22;65160;50.504;3.666;2022-12-18T16:15:13;-0.28;83.57
76345;DHT22;65160;50.504;3.666;2022-12-18T16:17:39;-0.28;83.82
76345;DHT22;65160;50.504;3.666;2022-12-18T16:20:08;-0.30;83.27
76345;DHT22;65160;50.504;3.666;2022-12-18T16:22:37;-0.33;84.62
76345;DHT22;65160;50.504;3.666;2022-12-18T16:25:02;-0.34;84.25
76345;DHT22;65160;50.504;3.666;2022-12-18T16:27:30;-0.37;84.59
76345;DHT22;65160;50.504;3.666;2022-12-18T16:29:55;-0.40;84.80
76345;DHT22;65160;50.504;3.666;2022-12-18T16:32:22;-0.34;85.29
76345;DHT22;65160;50.504;3.666;2022-12-18T16:34:48;-0.35;86.42
76345;DHT22;65160;50.504;3.666;2022-12-18T16:37:14;-0.34;85.91
76345;DHT22;65160;50.504;3.666;2022-12-18T16:39:41;-0.34;87.18
76345;DHT22;65160;50.504;3.666;2022-12-18T16:42:11;-0.30;86.89
76345;DHT22;65160;50.504;3.666;2022-12-18T16:44:42;-0.33;86.29
76345;DHT22;65160;50.504;3.666;2022-12-18T16:47:08;-0.27;86.09
76345;DHT22;65160;50.504;3.666;2022-12-18T16:49:33;-0.23;86.79
76345;DHT22;65160;50.504;3.666;2022-12-18T16:51:59;-0.27;86.92
76345;DHT22;65160;50.504;3.666;2022-12-18T16:54:24;-0.27;87.28
76345;DHT22;65160;50.504;3.666;2022-12-18T16:56:50;-0.25;87.08
76345;DHT22;65160;50.504;3.666;2022-12-18T16:59:16;-0.25;87.66
76345;DHT22;65160;50.504;3.666;2022-12-18T17:01:41;-0.24;87.46
76345;DHT22;65160;50.504;3.666;2022-12-18T17:04:08;-0.21;88.42
76345;DHT22;65160;50.504;3.666;2022-12-18T17:06:38;-0.23;87.32
76345;DHT22;65160;50.504;3.666;2022-12-18T17:09:06;-0.24;87.57
76345;DHT22;65160;50.504;3.666;2022-12-18T17:11:34;-0.23;88.17
76345;DHT22;65160;50.504;3.666;2022-12-18T17:14:12;-0.23;88.84
76345;DHT22;65160;50.504;3.666;2022-12-18T17:16:39;-0.18;88.69
76345;DHT22;65160;50.504;3.666;2022-12-18T17:19:04;-0.18;89.00
76345;DHT22;65160;50.504;3.666;2022-12-18T17:21:30;-0.20;87.96
76345;DHT22;65160;50.504;3.666;2022-12-18T17:23:58;-0.17;88.84
76345;DHT22;65160;50.504;3.666;2022-12-18T17:26:24;-0.14;88.98